<?xml version="1.0" encoding="UTF-8" standalone="no" ?>
<gpx xmlns="http://www.topografix.com/GPX/1/1" xmlns:xsi="http://www.w3.org/2001/XMLSchema-instance" xsi:schemaLocation="http://www.topografix.com/GPX/1/1 http://www.topografix.com/GPX/1/1/gpx.xsd" version="1.1" creator="VisuGPX - https://www.visugpx.com">
  <metadata>
    <name>Prospection chemins praticables 1</name>
  </metadata>
  <trk>
    <name><![CDATA[Prospection chemins praticables 1_16]]></name>
    <trkseg>
      <trkpt lat="47.72125" lon="5.08324">
        <ele>471.86</ele>
        <time>2021-08-25T16:55:18Z</time>
      </trkpt>
      <trkpt lat="47.72126" lon="5.08326">
        <ele>471.71</ele>
        <time>2021-08-25T16:55:20Z</time>
      </trkpt>
      <trkpt lat="47.72135" lon="5.08345">
        <ele>470.63</ele>
        <time>2021-08-25T16:55:37Z</time>
      </trkpt>
      <trkpt lat="47.72142" lon="5.08364">
        <ele>469.5</ele>
        <time>2021-08-25T16:55:51Z</time>
      </trkpt>
      <trkpt lat="47.72145" lon="5.0838">
        <ele>468.76</ele>
        <time>2021-08-25T16:56:02Z</time>
      </trkpt>
      <trkpt lat="47.72142" lon="5.08393">
        <ele>468.63</ele>
        <time>2021-08-25T16:56:10Z</time>
      </trkpt>
      <trkpt lat="47.72136" lon="5.084">
        <ele>468.35</ele>
        <time>2021-08-25T16:56:24Z</time>
      </trkpt>
      <trkpt lat="47.72131" lon="5.08403">
        <ele>468.33</ele>
        <time>2021-08-25T16:56:33Z</time>
      </trkpt>
      <trkpt lat="47.72125" lon="5.08413">
        <ele>468.12</ele>
        <time>2021-08-25T16:56:43Z</time>
      </trkpt>
      <trkpt lat="47.72115" lon="5.08428">
        <ele>467.64</ele>
        <time>2021-08-25T16:56:58Z</time>
      </trkpt>
      <trkpt lat="47.72105" lon="5.0844">
        <ele>466.97</ele>
        <time>2021-08-25T16:57:14Z</time>
      </trkpt>
      <trkpt lat="47.721" lon="5.08451">
        <ele>466.54</ele>
        <time>2021-08-25T16:57:26Z</time>
      </trkpt>
      <trkpt lat="47.72098" lon="5.08454">
        <ele>466.39</ele>
        <time>2021-08-25T16:57:44Z</time>
      </trkpt>
      <trkpt lat="47.72096" lon="5.08457">
        <ele>466.93</ele>
        <time>2021-08-25T16:58:57Z</time>
      </trkpt>
      <trkpt lat="47.72096" lon="5.08458">
        <ele>467.06</ele>
        <time>2021-08-25T16:59:55Z</time>
      </trkpt>
      <trkpt lat="47.72091" lon="5.08468">
        <ele>467.22</ele>
        <time>2021-08-25T17:00:15Z</time>
      </trkpt>
      <trkpt lat="47.72083" lon="5.08484">
        <ele>467.26</ele>
        <time>2021-08-25T17:00:27Z</time>
      </trkpt>
      <trkpt lat="47.72076" lon="5.08504">
        <ele>468.01</ele>
        <time>2021-08-25T17:00:43Z</time>
      </trkpt>
      <trkpt lat="47.72069" lon="5.08522">
        <ele>469.12</ele>
        <time>2021-08-25T17:00:55Z</time>
      </trkpt>
      <trkpt lat="47.72066" lon="5.08526">
        <ele>469.26</ele>
        <time>2021-08-25T17:00:57Z</time>
      </trkpt>
      <trkpt lat="47.72055" lon="5.08546">
        <ele>470.12</ele>
        <time>2021-08-25T17:01:14Z</time>
      </trkpt>
      <trkpt lat="47.72046" lon="5.08557">
        <ele>470.69</ele>
        <time>2021-08-25T17:01:26Z</time>
      </trkpt>
      <trkpt lat="47.72042" lon="5.08563">
        <ele>470.97</ele>
        <time>2021-08-25T17:02:05Z</time>
      </trkpt>
      <trkpt lat="47.7203" lon="5.08574">
        <ele>471.58</ele>
        <time>2021-08-25T17:02:18Z</time>
      </trkpt>
      <trkpt lat="47.72014" lon="5.08587">
        <ele>471.93</ele>
        <time>2021-08-25T17:02:33Z</time>
      </trkpt>
      <trkpt lat="47.72003" lon="5.08598">
        <ele>471.98</ele>
        <time>2021-08-25T17:02:45Z</time>
      </trkpt>
      <trkpt lat="47.71993" lon="5.08609">
        <ele>472.34</ele>
        <time>2021-08-25T17:02:55Z</time>
      </trkpt>
      <trkpt lat="47.71982" lon="5.08629">
        <ele>473.2</ele>
        <time>2021-08-25T17:03:11Z</time>
      </trkpt>
      <trkpt lat="47.71974" lon="5.08644">
        <ele>473.93</ele>
        <time>2021-08-25T17:03:23Z</time>
      </trkpt>
      <trkpt lat="47.71966" lon="5.08658">
        <ele>474.14</ele>
        <time>2021-08-25T17:03:34Z</time>
      </trkpt>
      <trkpt lat="47.71959" lon="5.08673">
        <ele>474.52</ele>
        <time>2021-08-25T17:03:47Z</time>
      </trkpt>
      <trkpt lat="47.71959" lon="5.08675">
        <ele>474.57</ele>
        <time>2021-08-25T17:03:49Z</time>
      </trkpt>
      <trkpt lat="47.71953" lon="5.08696">
        <ele>475.26</ele>
        <time>2021-08-25T17:04:03Z</time>
      </trkpt>
      <trkpt lat="47.7195" lon="5.08709">
        <ele>475.2</ele>
        <time>2021-08-25T17:04:17Z</time>
      </trkpt>
      <trkpt lat="47.71946" lon="5.08707">
        <ele>475.08</ele>
        <time>2021-08-25T17:04:38Z</time>
      </trkpt>
      <trkpt lat="47.71938" lon="5.08704">
        <ele>474.7</ele>
        <time>2021-08-25T17:05:00Z</time>
      </trkpt>
      <trkpt lat="47.71931" lon="5.087">
        <ele>473.84</ele>
        <time>2021-08-25T17:05:19Z</time>
      </trkpt>
      <trkpt lat="47.71919" lon="5.08695">
        <ele>473.02</ele>
        <time>2021-08-25T17:05:33Z</time>
      </trkpt>
      <trkpt lat="47.71916" lon="5.08695">
        <ele>472.92</ele>
        <time>2021-08-25T17:05:37Z</time>
      </trkpt>
      <trkpt lat="47.71905" lon="5.08689">
        <ele>472.43</ele>
        <time>2021-08-25T17:05:52Z</time>
      </trkpt>
      <trkpt lat="47.71894" lon="5.08684">
        <ele>472.07</ele>
        <time>2021-08-25T17:06:08Z</time>
      </trkpt>
      <trkpt lat="47.7189" lon="5.08681">
        <ele>471.48</ele>
        <time>2021-08-25T17:06:26Z</time>
      </trkpt>
      <trkpt lat="47.71885" lon="5.08677">
        <ele>471.27</ele>
        <time>2021-08-25T17:06:40Z</time>
      </trkpt>
      <trkpt lat="47.71878" lon="5.08675">
        <ele>470.44</ele>
        <time>2021-08-25T17:06:53Z</time>
      </trkpt>
      <trkpt lat="47.71878" lon="5.08674">
        <ele>470.18</ele>
        <time>2021-08-25T17:06:55Z</time>
      </trkpt>
      <trkpt lat="47.71867" lon="5.08672">
        <ele>469.76</ele>
        <time>2021-08-25T17:07:10Z</time>
      </trkpt>
      <trkpt lat="47.71858" lon="5.08666">
        <ele>469</ele>
        <time>2021-08-25T17:07:25Z</time>
      </trkpt>
      <trkpt lat="47.71851" lon="5.08664">
        <ele>468.88</ele>
        <time>2021-08-25T17:07:37Z</time>
      </trkpt>
      <trkpt lat="47.71846" lon="5.08664">
        <ele>467.88</ele>
        <time>2021-08-25T17:07:58Z</time>
      </trkpt>
      <trkpt lat="47.71846" lon="5.08666">
        <ele>467.67</ele>
        <time>2021-08-25T17:09:02Z</time>
      </trkpt>
      <trkpt lat="47.71846" lon="5.08666">
        <ele>467.83</ele>
        <time>2021-08-25T17:10:02Z</time>
      </trkpt>
      <trkpt lat="47.71846" lon="5.08668">
        <ele>467.87</ele>
        <time>2021-08-25T17:10:59Z</time>
      </trkpt>
      <trkpt lat="47.71846" lon="5.08668">
        <ele>467.73</ele>
        <time>2021-08-25T17:11:31Z</time>
      </trkpt>
      <trkpt lat="47.71842" lon="5.08666">
        <ele>466.09</ele>
        <time>2021-08-25T17:11:43Z</time>
      </trkpt>
      <trkpt lat="47.71838" lon="5.08664">
        <ele>462.45</ele>
        <time>2021-08-25T17:12:00Z</time>
      </trkpt>
      <trkpt lat="47.71833" lon="5.08661">
        <ele>461.45</ele>
        <time>2021-08-25T17:12:14Z</time>
      </trkpt>
      <trkpt lat="47.71827" lon="5.08659">
        <ele>458.87</ele>
        <time>2021-08-25T17:12:30Z</time>
      </trkpt>
      <trkpt lat="47.71823" lon="5.08656">
        <ele>456.91</ele>
        <time>2021-08-25T17:12:44Z</time>
      </trkpt>
      <trkpt lat="47.71817" lon="5.08653">
        <ele>455.21</ele>
        <time>2021-08-25T17:13:01Z</time>
      </trkpt>
      <trkpt lat="47.71809" lon="5.08649">
        <ele>453.24</ele>
        <time>2021-08-25T17:13:12Z</time>
      </trkpt>
      <trkpt lat="47.71802" lon="5.08646">
        <ele>451.58</ele>
        <time>2021-08-25T17:13:23Z</time>
      </trkpt>
      <trkpt lat="47.71796" lon="5.08644">
        <ele>450.08</ele>
        <time>2021-08-25T17:13:36Z</time>
      </trkpt>
      <trkpt lat="47.71793" lon="5.08643">
        <ele>449.13</ele>
        <time>2021-08-25T17:13:50Z</time>
      </trkpt>
      <trkpt lat="47.71789" lon="5.08642">
        <ele>448.44</ele>
        <time>2021-08-25T17:14:54Z</time>
      </trkpt>
      <trkpt lat="47.71782" lon="5.08638">
        <ele>446.28</ele>
        <time>2021-08-25T17:15:04Z</time>
      </trkpt>
      <trkpt lat="47.71774" lon="5.08635">
        <ele>444.5</ele>
        <time>2021-08-25T17:15:17Z</time>
      </trkpt>
      <trkpt lat="47.71768" lon="5.0863">
        <ele>442.89</ele>
        <time>2021-08-25T17:15:31Z</time>
      </trkpt>
      <trkpt lat="47.71761" lon="5.08628">
        <ele>441.15</ele>
        <time>2021-08-25T17:15:44Z</time>
      </trkpt>
      <trkpt lat="47.71753" lon="5.08627">
        <ele>438.91</ele>
        <time>2021-08-25T17:15:59Z</time>
      </trkpt>
      <trkpt lat="47.71745" lon="5.08623">
        <ele>437.17</ele>
        <time>2021-08-25T17:16:13Z</time>
      </trkpt>
      <trkpt lat="47.71737" lon="5.08616">
        <ele>434.3</ele>
        <time>2021-08-25T17:16:30Z</time>
      </trkpt>
      <trkpt lat="47.71729" lon="5.08615">
        <ele>431.99</ele>
        <time>2021-08-25T17:16:46Z</time>
      </trkpt>
      <trkpt lat="47.71722" lon="5.08614">
        <ele>428.82</ele>
        <time>2021-08-25T17:17:03Z</time>
      </trkpt>
      <trkpt lat="47.71716" lon="5.08612">
        <ele>425.74</ele>
        <time>2021-08-25T17:17:20Z</time>
      </trkpt>
      <trkpt lat="47.71711" lon="5.0861">
        <ele>423.85</ele>
        <time>2021-08-25T17:17:32Z</time>
      </trkpt>
      <trkpt lat="47.71707" lon="5.08604">
        <ele>420.7</ele>
        <time>2021-08-25T17:17:47Z</time>
      </trkpt>
      <trkpt lat="47.717" lon="5.08599">
        <ele>418.41</ele>
        <time>2021-08-25T17:18:02Z</time>
      </trkpt>
      <trkpt lat="47.71694" lon="5.08594">
        <ele>416.69</ele>
        <time>2021-08-25T17:18:20Z</time>
      </trkpt>
      <trkpt lat="47.7169" lon="5.08593">
        <ele>415.02</ele>
        <time>2021-08-25T17:18:36Z</time>
      </trkpt>
      <trkpt lat="47.71688" lon="5.08592">
        <ele>414.3</ele>
        <time>2021-08-25T17:18:44Z</time>
      </trkpt>
      <trkpt lat="47.7168" lon="5.08588">
        <ele>413.62</ele>
        <time>2021-08-25T17:19:11Z</time>
      </trkpt>
      <trkpt lat="47.71682" lon="5.08589">
        <ele>413.64</ele>
        <time>2021-08-25T17:19:57Z</time>
      </trkpt>
      <trkpt lat="47.71687" lon="5.08588">
        <ele>413.51</ele>
        <time>2021-08-25T17:20:30Z</time>
      </trkpt>
      <trkpt lat="47.71695" lon="5.08562">
        <ele>413.67</ele>
        <time>2021-08-25T17:20:47Z</time>
      </trkpt>
      <trkpt lat="47.71702" lon="5.08546">
        <ele>413.81</ele>
        <time>2021-08-25T17:20:56Z</time>
      </trkpt>
      <trkpt lat="47.71709" lon="5.08522">
        <ele>413.84</ele>
        <time>2021-08-25T17:21:13Z</time>
      </trkpt>
      <trkpt lat="47.71711" lon="5.08518">
        <ele>413.96</ele>
        <time>2021-08-25T17:21:16Z</time>
      </trkpt>
      <trkpt lat="47.71715" lon="5.08507">
        <ele>413.98</ele>
        <time>2021-08-25T17:21:23Z</time>
      </trkpt>
      <trkpt lat="47.7172" lon="5.08488">
        <ele>415.25</ele>
        <time>2021-08-25T17:21:37Z</time>
      </trkpt>
      <trkpt lat="47.71721" lon="5.08486">
        <ele>415.27</ele>
        <time>2021-08-25T17:21:39Z</time>
      </trkpt>
      <trkpt lat="47.71734" lon="5.08457">
        <ele>416.01</ele>
        <time>2021-08-25T17:21:55Z</time>
      </trkpt>
      <trkpt lat="47.7174" lon="5.08436">
        <ele>415.62</ele>
        <time>2021-08-25T17:22:10Z</time>
      </trkpt>
      <trkpt lat="47.71745" lon="5.08417">
        <ele>415.46</ele>
        <time>2021-08-25T17:22:25Z</time>
      </trkpt>
      <trkpt lat="47.71748" lon="5.08413">
        <ele>415.22</ele>
        <time>2021-08-25T17:22:28Z</time>
      </trkpt>
      <trkpt lat="47.71755" lon="5.08402">
        <ele>415.19</ele>
        <time>2021-08-25T17:22:36Z</time>
      </trkpt>
      <trkpt lat="47.71763" lon="5.08388">
        <ele>414.85</ele>
        <time>2021-08-25T17:22:46Z</time>
      </trkpt>
      <trkpt lat="47.71779" lon="5.08378">
        <ele>414.64</ele>
        <time>2021-08-25T17:23:01Z</time>
      </trkpt>
      <trkpt lat="47.71785" lon="5.08375">
        <ele>414.59</ele>
        <time>2021-08-25T17:23:09Z</time>
      </trkpt>
      <trkpt lat="47.71795" lon="5.08379">
        <ele>414.92</ele>
        <time>2021-08-25T17:23:24Z</time>
      </trkpt>
      <trkpt lat="47.71798" lon="5.08375">
        <ele>414.95</ele>
        <time>2021-08-25T17:23:58Z</time>
      </trkpt>
      <trkpt lat="47.71809" lon="5.08364">
        <ele>414.9</ele>
        <time>2021-08-25T17:24:14Z</time>
      </trkpt>
      <trkpt lat="47.71819" lon="5.08346">
        <ele>415.38</ele>
        <time>2021-08-25T17:24:28Z</time>
      </trkpt>
      <trkpt lat="47.71816" lon="5.08343">
        <ele>415.31</ele>
        <time>2021-08-25T17:24:44Z</time>
      </trkpt>
      <trkpt lat="47.71811" lon="5.08329">
        <ele>415.15</ele>
        <time>2021-08-25T17:24:56Z</time>
      </trkpt>
      <trkpt lat="47.71811" lon="5.08332">
        <ele>415.1</ele>
        <time>2021-08-25T17:25:14Z</time>
      </trkpt>
      <trkpt lat="47.71817" lon="5.08337">
        <ele>414.68</ele>
        <time>2021-08-25T17:25:33Z</time>
      </trkpt>
      <trkpt lat="47.71823" lon="5.08336">
        <ele>416.85</ele>
        <time>2021-08-25T17:25:49Z</time>
      </trkpt>
      <trkpt lat="47.71828" lon="5.08335">
        <ele>417.37</ele>
        <time>2021-08-25T17:26:02Z</time>
      </trkpt>
      <trkpt lat="47.71833" lon="5.0833">
        <ele>418.69</ele>
        <time>2021-08-25T17:26:23Z</time>
      </trkpt>
      <trkpt lat="47.71833" lon="5.08329">
        <ele>418.21</ele>
        <time>2021-08-25T17:26:24Z</time>
      </trkpt>
      <trkpt lat="47.71833" lon="5.08319">
        <ele>418.76</ele>
        <time>2021-08-25T17:26:30Z</time>
      </trkpt>
      <trkpt lat="47.71829" lon="5.08311">
        <ele>417.92</ele>
        <time>2021-08-25T17:26:52Z</time>
      </trkpt>
      <trkpt lat="47.71834" lon="5.08309">
        <ele>420.99</ele>
        <time>2021-08-25T17:27:01Z</time>
      </trkpt>
      <trkpt lat="47.71838" lon="5.08311">
        <ele>423.01</ele>
        <time>2021-08-25T17:27:11Z</time>
      </trkpt>
      <trkpt lat="47.71845" lon="5.08307">
        <ele>426.93</ele>
        <time>2021-08-25T17:27:23Z</time>
      </trkpt>
      <trkpt lat="47.71845" lon="5.08306">
        <ele>423</ele>
        <time>2021-08-25T17:27:24Z</time>
      </trkpt>
      <trkpt lat="47.71846" lon="5.08305">
        <ele>427.02</ele>
        <time>2021-08-25T17:27:25Z</time>
      </trkpt>
      <trkpt lat="47.71851" lon="5.08305">
        <ele>428.65</ele>
        <time>2021-08-25T17:27:36Z</time>
      </trkpt>
      <trkpt lat="47.71857" lon="5.083">
        <ele>431.72</ele>
        <time>2021-08-25T17:27:49Z</time>
      </trkpt>
      <trkpt lat="47.71857" lon="5.08299">
        <ele>432.01</ele>
        <time>2021-08-25T17:27:50Z</time>
      </trkpt>
      <trkpt lat="47.71864" lon="5.08295">
        <ele>432.54</ele>
        <time>2021-08-25T17:28:05Z</time>
      </trkpt>
      <trkpt lat="47.7187" lon="5.08293">
        <ele>434.46</ele>
        <time>2021-08-25T17:28:16Z</time>
      </trkpt>
      <trkpt lat="47.71876" lon="5.08289">
        <ele>437.25</ele>
        <time>2021-08-25T17:28:28Z</time>
      </trkpt>
      <trkpt lat="47.71879" lon="5.08293">
        <ele>437.41</ele>
        <time>2021-08-25T17:28:40Z</time>
      </trkpt>
      <trkpt lat="47.71888" lon="5.0829">
        <ele>438.85</ele>
        <time>2021-08-25T17:28:53Z</time>
      </trkpt>
      <trkpt lat="47.71891" lon="5.08286">
        <ele>441.55</ele>
        <time>2021-08-25T17:29:06Z</time>
      </trkpt>
      <trkpt lat="47.71897" lon="5.08285">
        <ele>441.36</ele>
        <time>2021-08-25T17:29:18Z</time>
      </trkpt>
      <trkpt lat="47.71894" lon="5.08276">
        <ele>439.96</ele>
        <time>2021-08-25T17:29:37Z</time>
      </trkpt>
      <trkpt lat="47.71892" lon="5.08274">
        <ele>440.12</ele>
        <time>2021-08-25T17:30:30Z</time>
      </trkpt>
      <trkpt lat="47.71899" lon="5.08278">
        <ele>441.01</ele>
        <time>2021-08-25T17:30:44Z</time>
      </trkpt>
      <trkpt lat="47.71898" lon="5.08287">
        <ele>441.07</ele>
        <time>2021-08-25T17:30:57Z</time>
      </trkpt>
      <trkpt lat="47.719" lon="5.08284">
        <ele>441.94</ele>
        <time>2021-08-25T17:31:03Z</time>
      </trkpt>
      <trkpt lat="47.71906" lon="5.08279">
        <ele>445.21</ele>
        <time>2021-08-25T17:31:19Z</time>
      </trkpt>
      <trkpt lat="47.7192" lon="5.08272">
        <ele>447.98</ele>
        <time>2021-08-25T17:31:36Z</time>
      </trkpt>
      <trkpt lat="47.71929" lon="5.08266">
        <ele>449.92</ele>
        <time>2021-08-25T17:31:48Z</time>
      </trkpt>
      <trkpt lat="47.71943" lon="5.08262">
        <ele>452.12</ele>
        <time>2021-08-25T17:32:03Z</time>
      </trkpt>
      <trkpt lat="47.71949" lon="5.08261">
        <ele>452.6</ele>
        <time>2021-08-25T17:32:12Z</time>
      </trkpt>
      <trkpt lat="47.71955" lon="5.08259">
        <ele>454.45</ele>
        <time>2021-08-25T17:32:21Z</time>
      </trkpt>
      <trkpt lat="47.71964" lon="5.08255">
        <ele>457.34</ele>
        <time>2021-08-25T17:32:34Z</time>
      </trkpt>
      <trkpt lat="47.71968" lon="5.08252">
        <ele>458.55</ele>
        <time>2021-08-25T17:32:46Z</time>
      </trkpt>
      <trkpt lat="47.71973" lon="5.0825">
        <ele>461.63</ele>
        <time>2021-08-25T17:32:58Z</time>
      </trkpt>
      <trkpt lat="47.71984" lon="5.08246">
        <ele>462.91</ele>
        <time>2021-08-25T17:33:13Z</time>
      </trkpt>
      <trkpt lat="47.71994" lon="5.08239">
        <ele>463.56</ele>
        <time>2021-08-25T17:33:28Z</time>
      </trkpt>
      <trkpt lat="47.72005" lon="5.08234">
        <ele>464.9</ele>
        <time>2021-08-25T17:33:42Z</time>
      </trkpt>
      <trkpt lat="47.72009" lon="5.08233">
        <ele>464.7</ele>
        <time>2021-08-25T17:34:06Z</time>
      </trkpt>
      <trkpt lat="47.72011" lon="5.08234">
        <ele>465.22</ele>
        <time>2021-08-25T17:34:12Z</time>
      </trkpt>
      <trkpt lat="47.72012" lon="5.08234">
        <ele>465.08</ele>
        <time>2021-08-25T17:34:13Z</time>
      </trkpt>
      <trkpt lat="47.72026" lon="5.08225">
        <ele>467</ele>
        <time>2021-08-25T17:34:30Z</time>
      </trkpt>
      <trkpt lat="47.72038" lon="5.08225">
        <ele>468.17</ele>
        <time>2021-08-25T17:34:45Z</time>
      </trkpt>
      <trkpt lat="47.72051" lon="5.08222">
        <ele>469.47</ele>
        <time>2021-08-25T17:35:00Z</time>
      </trkpt>
      <trkpt lat="47.72058" lon="5.08216">
        <ele>469.61</ele>
        <time>2021-08-25T17:35:26Z</time>
      </trkpt>
      <trkpt lat="47.72057" lon="5.08216">
        <ele>470.02</ele>
        <time>2021-08-25T17:35:32Z</time>
      </trkpt>
      <trkpt lat="47.72068" lon="5.08211">
        <ele>470.74</ele>
        <time>2021-08-25T17:35:49Z</time>
      </trkpt>
      <trkpt lat="47.7208" lon="5.08202">
        <ele>471.11</ele>
        <time>2021-08-25T17:36:03Z</time>
      </trkpt>
      <trkpt lat="47.72084" lon="5.08197">
        <ele>472.18</ele>
        <time>2021-08-25T17:36:10Z</time>
      </trkpt>
      <trkpt lat="47.72086" lon="5.08197">
        <ele>472.49</ele>
        <time>2021-08-25T17:36:12Z</time>
      </trkpt>
      <trkpt lat="47.7209" lon="5.08199">
        <ele>472.3</ele>
        <time>2021-08-25T17:36:16Z</time>
      </trkpt>
      <trkpt lat="47.721" lon="5.08214">
        <ele>472.27</ele>
        <time>2021-08-25T17:36:31Z</time>
      </trkpt>
      <trkpt lat="47.72108" lon="5.0823">
        <ele>472</ele>
        <time>2021-08-25T17:36:44Z</time>
      </trkpt>
      <trkpt lat="47.72112" lon="5.08239">
        <ele>472.06</ele>
        <time>2021-08-25T17:36:51Z</time>
      </trkpt>
      <trkpt lat="47.72123" lon="5.08261">
        <ele>472.4</ele>
        <time>2021-08-25T17:37:09Z</time>
      </trkpt>
      <trkpt lat="47.72125" lon="5.08266">
        <ele>472.14</ele>
        <time>2021-08-25T17:37:26Z</time>
      </trkpt>
      <trkpt lat="47.72132" lon="5.08284">
        <ele>472.59</ele>
        <time>2021-08-25T17:37:41Z</time>
      </trkpt>
    </trkseg>
  </trk>
</gpx>